Time;durP1;ratioP1;P1;durP2;ratioP2;P2;SDS_P1;SDS_P2;PMS_P1;PMS_P2;Temp;Humidity;BMP_temperature;BMP_pressure;BME280_temperature;BME280_humidity;BME280_pressure;Samples;Min_cycle;Max_cycle;Signal;HPM_P1;HPM_P2
2021/12/18 00:01:17;;;;;;;0.00;0.00;;;3.90;99.90;;;;;;5093272;28;20067;-48
2021/12/18 00:03:44;;;;;;;0.17;0.17;;;3.90;99.90;;;;;;5093021;28;20024;-48
2021/12/18 00:06:10;;;;;;;0.00;0.00;;;4.00;99.90;;;;;;5075038;28;20028;-47
2021/12/18 00:08:37;;;;;;;0.00;0.00;;;4.10;99.90;;;;;;5093299;28;20035;-46
2021/12/18 00:11:03;;;;;;;0.00;0.00;;;4.10;99.90;;;;;;5092910;28;20035;-47
2021/12/18 00:13:29;;;;;;;0.95;0.90;;;4.10;99.90;;;;;;5092851;28;20017;-48
2021/12/18 00:15:55;;;;;;;2.28;2.17;;;3.90;99.90;;;;;;5092629;28;20035;-47
2021/12/18 00:18:21;;;;;;;0.00;0.00;;;3.90;99.90;;;;;;5092668;28;20074;-47
2021/12/18 00:20:47;;;;;;;0.00;0.00;;;3.80;99.90;;;;;;5096169;28;20021;-50
2021/12/18 00:23:14;;;;;;;0.10;0.10;;;3.80;99.90;;;;;;5096773;28;20031;-49
2021/12/18 00:25:40;;;;;;;3.30;2.10;;;3.70;99.90;;;;;;5096366;28;20402;-50
2021/12/18 00:28:06;;;;;;;0.00;0.00;;;3.70;99.90;;;;;;5096732;28;20111;-48
2021/12/18 00:30:33;;;;;;;0.00;0.00;;;3.70;99.90;;;;;;5096228;28;20455;-51
2021/12/18 00:32:59;;;;;;;3.85;2.67;;;3.60;99.90;;;;;;5096268;28;20055;-47
2021/12/18 00:35:25;;;;;;;3.88;2.03;;;3.60;99.90;;;;;;5096485;28;20032;-49
2021/12/18 00:37:51;;;;;;;9.45;4.65;;;3.30;99.90;;;;;;5096210;28;20166;-48
2021/12/18 00:40:21;;;;;;;0.47;0.47;;;3.30;99.90;;;;;;5095905;28;20035;-49
2021/12/18 00:42:56;;;;;;;6.40;3.30;;;3.30;99.90;;;;;;5096403;28;20020;-47
2021/12/18 00:45:21;;;;;;;4.38;0.77;;;3.20;99.90;;;;;;5095840;28;20028;-48
2021/12/18 00:47:47;;;;;;;0.00;0.00;;;3.20;99.90;;;;;;5095861;28;20115;-47
2021/12/18 00:50:18;;;;;;;0.82;0.82;;;3.30;99.90;;;;;;5096096;28;20028;-49
2021/12/18 00:52:44;;;;;;;2.03;1.75;;;3.40;99.90;;;;;;5096357;28;20458;-49
2021/12/18 00:55:09;;;;;;;3.08;1.13;;;3.10;99.90;;;;;;5077905;28;20115;-48
2021/12/18 00:57:36;;;;;;;3.53;2.70;;;3.00;99.90;;;;;;5096347;28;20031;-48
2021/12/18 01:00:05;;;;;;;10.68;4.68;;;3.00;99.90;;;;;;5095625;28;20067;-52
2021/12/18 01:02:31;;;;;;;0.98;0.57;;;2.80;99.90;;;;;;5077217;28;20032;-49
2021/12/18 01:04:57;;;;;;;3.30;2.15;;;2.60;99.90;;;;;;5095765;28;20084;-47
2021/12/18 01:07:23;;;;;;;4.82;1.67;;;2.30;99.90;;;;;;5095807;28;20048;-49
2021/12/18 01:12:17;;;;;;;3.83;1.88;;;2.20;99.90;;;;;;5095255;28;20035;-48
2021/12/18 01:25:07;;;;;;;10.07;4.22;;;2.00;99.90;;;;;;5095447;28;20055;-48
2021/12/18 01:27:33;;;;;;;8.90;2.20;;;2.00;99.90;;;;;;5095619;28;20433;-48
2021/12/18 01:29:58;;;;;;;6.78;3.05;;;2.00;99.90;;;;;;5095137;28;20016;-49
2021/12/18 01:32:26;;;;;;;11.00;6.15;;;2.10;99.90;;;;;;5094287;28;20020;-50
2021/12/18 01:34:51;;;;;;;8.88;2.97;;;2.00;99.90;;;;;;5094963;28;20128;-48
2021/12/18 01:37:20;;;;;;;11.40;3.38;;;2.00;99.90;;;;;;5095245;28;20443;-48
2021/12/18 01:39:45;;;;;;;7.25;3.70;;;1.80;99.90;;;;;;5095270;28;20024;-46
2021/12/18 01:45:06;;;;;;;0.00;0.00;;;1.90;99.90;;;;;;5095180;28;20082;-48
2021/12/18 01:53:00;;;;;;;0.85;0.75;;;2.40;99.90;;;;;;5095131;28;20077;-48
2021/12/18 01:55:29;;;;;;;2.30;0.85;;;2.60;99.90;;;;;;5094743;28;20028;-48
2021/12/18 01:57:55;;;;;;;2.83;1.10;;;2.60;99.90;;;;;;5094623;28;20521;-47
2021/12/18 02:00:25;;;;;;;0.25;0.25;;;2.60;99.90;;;;;;5094703;28;20032;-47
2021/12/18 02:02:51;;;;;;;2.08;1.15;;;2.70;99.90;;;;;;5076716;28;20093;-48
2021/12/18 02:05:18;;;;;;;0.00;0.00;;;2.90;99.90;;;;;;5094883;28;20123;-51
2021/12/18 02:07:44;;;;;;;1.08;0.40;;;3.00;99.90;;;;;;5094654;28;20024;-49
2021/12/18 02:10:18;;;;;;;0.00;0.00;;;3.00;99.90;;;;;;5094511;28;20028;-48
2021/12/18 02:20:50;;;;;;;0.00;0.00;;;3.20;99.90;;;;;;5094660;28;20379;-49
2021/12/18 02:23:16;;;;;;;1.98;0.70;;;3.20;99.90;;;;;;5094475;28;20062;-52
2021/12/18 02:25:45;;;;;;;0.10;0.10;;;3.30;99.90;;;;;;5094242;28;20041;-49
2021/12/18 02:28:18;;;;;;;0.00;0.00;;;3.40;99.90;;;;;;5094422;28;20063;-53
2021/12/18 02:30:45;;;;;;;1.17;1.17;;;3.40;99.90;;;;;;5094178;28;20493;-52
2021/12/18 02:33:11;;;;;;;0.00;0.00;;;3.30;99.90;;;;;;5094267;28;20016;-53
2021/12/18 02:35:44;;;;;;;0.10;0.10;;;3.40;99.90;;;;;;5094182;28;20082;-52
2021/12/18 02:38:20;;;;;;;0.00;0.00;;;3.40;99.90;;;;;;5094178;28;20032;-49
2021/12/18 02:40:57;;;;;;;0.00;0.00;;;3.40;99.90;;;;;;5094294;28;20096;-52
2021/12/18 02:43:35;;;;;;;0.00;0.00;;;3.30;99.90;;;;;;5093987;28;20370;-51
2021/12/18 02:46:06;;;;;;;1.98;1.17;;;3.40;99.90;;;;;;5092627;28;20059;-49
2021/12/18 02:48:42;;;;;;;0.10;0.10;;;3.40;99.90;;;;;;5094132;28;20016;-49
2021/12/18 02:51:10;;;;;;;0.00;0.00;;;3.50;99.90;;;;;;5094066;28;20032;-53
2021/12/18 02:53:40;;;;;;;0.00;0.00;;;3.50;99.90;;;;;;5093745;28;20069;-49
2021/12/18 02:56:08;;;;;;;0.88;0.88;;;3.50;99.90;;;;;;5094225;28;20058;-51
2021/12/18 02:58:47;;;;;;;0.00;0.00;;;3.50;99.90;;;;;;5094154;28;20059;-50
2021/12/18 03:01:16;;;;;;;0.00;0.00;;;3.40;99.90;;;;;;5093849;28;20024;-50
2021/12/18 03:03:43;;;;;;;0.00;0.00;;;3.40;99.90;;;;;;5093360;28;20032;-49
2021/12/18 03:06:25;;;;;;;0.00;0.00;;;3.40;99.90;;;;;;5093494;28;20043;-52
2021/12/18 03:09:11;;;;;;;0.00;0.00;;;3.40;99.90;;;;;;5093797;28;20095;-52
2021/12/18 03:25:17;;;;;;;0.00;0.00;;;3.30;99.90;;;;;;5093599;28;20135;-50
2021/12/18 03:27:44;;;;;;;0.00;0.00;;;3.40;99.90;;;;;;5093295;28;20031;-49
2021/12/18 03:30:10;;;;;;;0.00;0.00;;;3.50;99.90;;;;;;5093333;28;20035;-48
2021/12/18 03:32:35;;;;;;;0.00;0.00;;;3.50;99.90;;;;;;5093445;28;20024;-49
2021/12/18 03:35:01;;;;;;;0.00;0.00;;;3.50;99.90;;;;;;5093219;28;20032;-49
2021/12/18 03:37:28;;;;;;;0.00;0.00;;;3.50;99.90;;;;;;5093370;28;20028;-49
2021/12/18 03:39:53;;;;;;;0.10;0.10;;;3.50;99.90;;;;;;5093346;28;20020;-51
2021/12/18 03:42:19;;;;;;;0.00;0.00;;;3.50;99.90;;;;;;5093421;28;20035;-48
2021/12/18 03:44:45;;;;;;;0.10;0.10;;;3.50;99.90;;;;;;5092922;28;20114;-48
2021/12/18 03:47:11;;;;;;;0.00;0.00;;;3.50;99.90;;;;;;5093391;28;20020;-48
2021/12/18 03:49:37;;;;;;;0.00;0.00;;;3.50;99.90;;;;;;5093691;28;20366;-50
2021/12/18 03:52:03;;;;;;;0.00;0.00;;;3.40;99.90;;;;;;5093071;28;20028;-49
2021/12/18 03:54:28;;;;;;;0.00;0.00;;;3.40;99.90;;;;;;5094523;28;20034;-51
2021/12/18 03:56:54;;;;;;;0.73;0.73;;;3.40;99.90;;;;;;5097702;28;20020;-49
2021/12/18 03:59:20;;;;;;;0.00;0.00;;;3.40;99.90;;;;;;5097317;28;20085;-49
2021/12/18 04:01:46;;;;;;;0.00;0.00;;;3.40;99.90;;;;;;5096998;28;20050;-47
2021/12/18 04:04:12;;;;;;;0.00;0.00;;;3.40;99.90;;;;;;5097123;28;20040;-49
2021/12/18 04:06:39;;;;;;;0.00;0.00;;;3.40;99.90;;;;;;5096897;28;20032;-47
2021/12/18 04:09:04;;;;;;;0.00;0.00;;;3.50;99.90;;;;;;5078886;28;20028;-49
2021/12/18 04:11:30;;;;;;;1.63;0.75;;;3.60;99.90;;;;;;5096995;28;20386;-48
2021/12/18 04:13:56;;;;;;;0.00;0.00;;;3.50;99.90;;;;;;5097009;28;20061;-50
2021/12/18 04:16:22;;;;;;;0.00;0.00;;;3.50;99.90;;;;;;5095802;28;20043;-47
2021/12/18 04:18:47;;;;;;;0.00;0.00;;;3.50;99.90;;;;;;5096826;28;20532;-47
2021/12/18 04:21:13;;;;;;;0.00;0.00;;;3.50;99.90;;;;;;5097088;28;20028;-47
2021/12/18 04:23:39;;;;;;;0.00;0.00;;;3.50;99.90;;;;;;5096673;28;20028;-49
2021/12/18 04:26:05;;;;;;;0.00;0.00;;;3.50;99.90;;;;;;5096807;28;20039;-49
2021/12/18 04:28:30;;;;;;;0.00;0.00;;;3.50;99.90;;;;;;5096696;28;20028;-51
2021/12/18 04:30:57;;;;;;;1.58;1.40;;;3.50;99.90;;;;;;5096649;28;20431;-47
2021/12/18 04:33:23;;;;;;;0.00;0.00;;;3.50;99.90;;;;;;5096456;28;20031;-49
2021/12/18 04:35:49;;;;;;;0.15;0.15;;;3.50;99.90;;;;;;5096805;28;20028;-47
2021/12/18 04:38:15;;;;;;;3.28;1.35;;;3.30;99.90;;;;;;5096303;28;20107;-48
2021/12/18 04:40:42;;;;;;;0.00;0.00;;;3.20;99.90;;;;;;5096457;28;20020;-49
2021/12/18 04:43:08;;;;;;;1.27;0.47;;;2.70;99.90;;;;;;5096173;28;20024;-48
2021/12/18 04:45:34;;;;;;;2.78;1.25;;;2.60;99.90;;;;;;5096079;28;20115;-48
2021/12/18 04:47:59;;;;;;;0.00;0.00;;;2.50;99.90;;;;;;5095919;28;20032;-46
2021/12/18 04:50:25;;;;;;;0.00;0.00;;;2.60;99.90;;;;;;5096186;28;20028;-49
2021/12/18 04:52:51;;;;;;;0.38;0.10;;;2.80;99.90;;;;;;5095956;28;20031;-52
2021/12/18 04:55:18;;;;;;;0.93;0.93;;;2.80;99.90;;;;;;5096118;28;20035;-50
2021/12/18 04:57:44;;;;;;;0.00;0.00;;;2.80;99.90;;;;;;5095701;28;20379;-49
2021/12/18 05:00:13;;;;;;;0.00;0.00;;;2.80;99.90;;;;;;5095680;28;20024;-48
2021/12/18 05:02:42;;;;;;;0.00;0.00;;;2.70;99.90;;;;;;5095899;28;20035;-49
2021/12/18 05:05:10;;;;;;;0.00;0.00;;;2.90;99.90;;;;;;5095500;28;20051;-46
2021/12/18 05:07:36;;;;;;;0.00;0.00;;;2.80;99.90;;;;;;5095098;28;20020;-47
2021/12/18 05:10:04;;;;;;;1.05;1.05;;;2.80;99.90;;;;;;5077298;28;20028;-46
2021/12/18 05:12:30;;;;;;;0.40;0.40;;;2.90;99.90;;;;;;5096068;28;20077;-48
2021/12/18 05:14:55;;;;;;;0.00;0.00;;;2.90;99.90;;;;;;5095588;28;20032;-49
2021/12/18 05:17:21;;;;;;;0.15;0.15;;;3.00;99.90;;;;;;5095859;28;20030;-47
2021/12/18 05:19:47;;;;;;;0.00;0.00;;;3.00;99.90;;;;;;5094401;28;20471;-48
2021/12/18 05:22:13;;;;;;;0.00;0.00;;;3.00;99.90;;;;;;5095695;28;20028;-48
2021/12/18 05:24:38;;;;;;;0.10;0.10;;;3.10;99.90;;;;;;5095311;28;20533;-49
2021/12/18 05:27:04;;;;;;;0.00;0.00;;;3.10;99.90;;;;;;5095613;28;20207;-49
2021/12/18 05:29:30;;;;;;;0.00;0.00;;;3.10;99.90;;;;;;5095204;28;20028;-48
2021/12/18 05:31:56;;;;;;;0.00;0.00;;;3.00;99.90;;;;;;5095077;28;20524;-48
2021/12/18 05:34:23;;;;;;;0.00;0.00;;;3.10;99.90;;;;;;5095118;28;20556;-48
2021/12/18 05:37:17;;;;;;;0.10;0.10;;;3.10;99.90;;;;;;5095025;28;20085;-46
2021/12/18 05:39:37;;;;;;;0.00;0.00;;;3.00;99.90;;;;;;5094660;28;20112;-46
2021/12/18 05:42:03;;;;;;;0.00;0.00;;;3.00;99.90;;;;;;5095047;28;20024;-48
2021/12/18 05:44:29;;;;;;;0.00;0.00;;;3.10;99.90;;;;;;5094843;28;20031;-51
2021/12/18 05:46:55;;;;;;;0.10;0.10;;;3.00;99.90;;;;;;5094969;28;20457;-48
2021/12/18 05:49:21;;;;;;;0.00;0.00;;;3.00;99.90;;;;;;5095187;28;20028;-49
2021/12/18 05:51:47;;;;;;;1.55;1.08;;;2.90;99.90;;;;;;5094656;28;20380;-50
2021/12/18 05:54:13;;;;;;;2.15;1.98;;;3.00;99.90;;;;;;5094932;28;20103;-48
2021/12/18 05:56:39;;;;;;;0.00;0.00;;;3.00;99.90;;;;;;5094795;28;20085;-49
2021/12/18 05:59:05;;;;;;;0.00;0.00;;;2.80;99.90;;;;;;5094583;28;20036;-49
2021/12/18 06:01:31;;;;;;;0.52;0.32;;;2.70;99.90;;;;;;5093478;28;20028;-55
2021/12/18 06:03:57;;;;;;;0.00;0.00;;;2.60;99.90;;;;;;5081363;28;20390;-52
2021/12/18 06:06:24;;;;;;;3.83;1.55;;;2.60;99.90;;;;;;5080731;28;20107;-51
2021/12/18 06:08:51;;;;;;;0.00;0.00;;;2.70;99.90;;;;;;5096831;28;20119;-50
2021/12/18 06:11:19;;;;;;;0.00;0.00;;;2.70;99.90;;;;;;5086035;28;20479;-49
2021/12/18 06:13:47;;;;;;;0.32;0.32;;;2.80;99.90;;;;;;5089125;28;20107;-48
2021/12/18 06:16:14;;;;;;;0.10;0.10;;;2.90;99.90;;;;;;5089425;28;20421;-48
2021/12/18 06:18:42;;;;;;;0.55;0.55;;;2.70;99.90;;;;;;5075908;28;20032;-50
2021/12/18 06:21:09;;;;;;;0.00;0.00;;;2.70;99.90;;;;;;5094037;28;20081;-47
2021/12/18 06:23:35;;;;;;;0.00;0.00;;;2.80;99.90;;;;;;5094199;28;20493;-48
2021/12/18 06:26:01;;;;;;;0.22;0.22;;;2.80;99.90;;;;;;5092885;28;20028;-48
2021/12/18 06:28:27;;;;;;;2.45;2.35;;;2.70;99.90;;;;;;5090510;28;20032;-47
2021/12/18 06:30:53;;;;;;;0.00;0.00;;;2.80;99.90;;;;;;5081046;28;20024;-48
2021/12/18 06:33:19;;;;;;;0.00;0.00;;;2.80;99.90;;;;;;5089153;28;20360;-49
2021/12/18 06:35:45;;;;;;;0.05;0.05;;;2.90;99.90;;;;;;5089874;28;20029;-49
2021/12/18 06:38:11;;;;;;;0.00;0.00;;;3.00;99.90;;;;;;5085592;28;20025;-47
2021/12/18 06:40:37;;;;;;;0.00;0.00;;;3.00;99.90;;;;;;5073635;28;20403;-52
2021/12/18 06:43:03;;;;;;;2.05;1.95;;;3.00;99.90;;;;;;5088405;28;20347;-49
2021/12/18 06:45:29;;;;;;;0.00;0.00;;;3.00;99.90;;;;;;5093564;28;20028;-49
2021/12/18 06:47:55;;;;;;;0.00;0.00;;;3.00;99.90;;;;;;5096286;28;20412;-46
2021/12/18 06:50:21;;;;;;;0.30;0.30;;;2.80;99.90;;;;;;5113888;28;20157;-48
2021/12/18 06:52:47;;;;;;;0.00;0.00;;;2.90;99.90;;;;;;5113853;28;20152;-48
2021/12/18 06:55:13;;;;;;;0.00;0.00;;;2.90;99.90;;;;;;5114175;28;20106;-48
2021/12/18 06:57:38;;;;;;;0.13;0.13;;;2.80;99.90;;;;;;5114195;28;20024;-52
2021/12/18 07:00:07;;;;;;;0.00;0.00;;;2.90;99.90;;;;;;5114267;28;20023;-48
2021/12/18 07:02:33;;;;;;;0.00;0.00;;;3.00;99.90;;;;;;5113652;28;20023;-48
2021/12/18 07:04:58;;;;;;;0.00;0.00;;;3.00;99.90;;;;;;5094029;28;20139;-50
2021/12/18 07:07:24;;;;;;;0.10;0.10;;;2.90;99.90;;;;;;5114289;28;20032;-49
2021/12/18 07:09:51;;;;;;;0.10;0.10;;;3.00;99.90;;;;;;5113783;28;20039;-46
2021/12/18 07:12:16;;;;;;;0.10;0.10;;;3.00;99.90;;;;;;5113858;28;20100;-48
2021/12/18 07:14:42;;;;;;;0.00;0.00;;;3.00;99.90;;;;;;5113925;28;20454;-49
2021/12/18 07:17:08;;;;;;;0.00;0.00;;;3.00;99.90;;;;;;5113615;28;20409;-48
2021/12/18 07:19:33;;;;;;;0.00;0.00;;;3.00;99.90;;;;;;5114191;28;20054;-49
2021/12/18 07:21:59;;;;;;;0.00;0.00;;;3.10;99.90;;;;;;5113987;28;20034;-47
2021/12/18 07:24:25;;;;;;;0.00;0.00;;;3.10;99.90;;;;;;5088719;28;20024;-49
2021/12/18 07:26:50;;;;;;;0.00;0.00;;;3.20;99.90;;;;;;5080583;28;20047;-48
2021/12/18 07:29:16;;;;;;;0.00;0.00;;;3.10;99.90;;;;;;5088180;28;20078;-49
2021/12/18 07:31:42;;;;;;;0.00;0.00;;;3.20;99.90;;;;;;5074726;28;20028;-48
2021/12/18 07:34:07;;;;;;;0.00;0.00;;;3.10;99.90;;;;;;5076303;28;20036;-53
2021/12/18 07:36:33;;;;;;;0.00;0.00;;;3.00;99.90;;;;;;5072561;28;20025;-51
2021/12/18 07:39:00;;;;;;;0.00;0.00;;;3.00;99.90;;;;;;5073299;28;20033;-47
2021/12/18 07:41:26;;;;;;;0.10;0.10;;;3.10;99.90;;;;;;5085416;28;20849;-46
2021/12/18 07:43:51;;;;;;;0.00;0.00;;;3.10;99.90;;;;;;5091489;28;20099;-48
2021/12/18 07:46:17;;;;;;;0.00;0.00;;;3.20;99.90;;;;;;5085593;28;20129;-48
2021/12/18 07:48:44;;;;;;;0.00;0.00;;;3.20;99.90;;;;;;5089662;28;20032;-49
2021/12/18 07:51:10;;;;;;;0.00;0.00;;;3.20;99.90;;;;;;5090421;28;20028;-47
2021/12/18 07:53:36;;;;;;;6.22;3.40;;;3.20;99.90;;;;;;5073183;28;20024;-51
2021/12/18 07:56:03;;;;;;;0.00;0.00;;;3.10;99.90;;;;;;5078678;28;20043;-49
2021/12/18 07:58:29;;;;;;;0.43;0.43;;;3.10;99.90;;;;;;5090743;28;20024;-48
2021/12/18 08:00:55;;;;;;;0.00;0.00;;;3.10;99.90;;;;;;5081929;28;20055;-46
2021/12/18 08:03:21;;;;;;;0.00;0.00;;;3.20;99.90;;;;;;5073692;28;20207;-51
2021/12/18 08:05:46;;;;;;;0.00;0.00;;;3.20;99.90;;;;;;5072854;28;20040;-47
2021/12/18 08:08:12;;;;;;;0.00;0.00;;;3.30;99.90;;;;;;5067875;28;20032;-47
2021/12/18 08:10:38;;;;;;;0.00;0.00;;;3.40;99.90;;;;;;5087132;28;20029;-47
2021/12/18 08:13:04;;;;;;;5.05;2.25;;;3.40;99.90;;;;;;5073612;28;20529;-49
2021/12/18 08:15:30;;;;;;;0.00;0.00;;;3.30;99.90;;;;;;5072063;28;20364;-47
2021/12/18 08:17:58;;;;;;;0.00;0.00;;;3.20;99.90;;;;;;5072639;28;20031;-47
2021/12/18 08:20:26;;;;;;;0.00;0.00;;;3.10;99.90;;;;;;5081692;28;20028;-48
2021/12/18 08:22:52;;;;;;;0.77;0.73;;;3.20;99.90;;;;;;5073303;28;20428;-48
2021/12/18 08:25:18;;;;;;;0.00;0.00;;;3.00;99.90;;;;;;5084592;28;20032;-48
2021/12/18 08:27:43;;;;;;;0.00;0.00;;;3.10;99.90;;;;;;5081316;28;20531;-47
2021/12/18 08:30:10;;;;;;;0.00;0.00;;;3.00;99.90;;;;;;5072633;28;20407;-48
2021/12/18 08:32:35;;;;;;;0.00;0.00;;;3.10;99.90;;;;;;5087808;28;20032;-49
2021/12/18 08:35:01;;;;;;;0.00;0.00;;;3.20;99.90;;;;;;5079963;28;20043;-47
2021/12/18 08:37:27;;;;;;;0.00;0.00;;;3.30;99.90;;;;;;5089699;28;20020;-51
2021/12/18 08:39:53;;;;;;;0.00;0.00;;;3.40;99.90;;;;;;5092621;28;20028;-48
2021/12/18 08:42:18;;;;;;;0.00;0.00;;;3.50;99.90;;;;;;5095839;28;20059;-49
2021/12/18 08:44:44;;;;;;;0.00;0.00;;;3.60;99.90;;;;;;5096037;28;20028;-49
2021/12/18 08:47:10;;;;;;;0.00;0.00;;;3.70;99.90;;;;;;5095781;28;20032;-50
2021/12/18 08:49:37;;;;;;;1.25;1.17;;;3.60;99.90;;;;;;5077703;28;20404;-48
2021/12/18 08:52:03;;;;;;;2.38;1.00;;;3.60;99.90;;;;;;5095998;28;20063;-48
2021/12/18 08:54:29;;;;;;;0.00;0.00;;;3.70;99.90;;;;;;5095932;28;20391;-53
2021/12/18 08:56:55;;;;;;;0.00;0.00;;;3.70;99.90;;;;;;5094496;28;20024;-47
2021/12/18 08:59:20;;;;;;;0.00;0.00;;;3.70;99.90;;;;;;5095351;28;20082;-49
2021/12/18 09:01:46;;;;;;;0.00;0.00;;;3.70;99.90;;;;;;5077174;28;20386;-52
2021/12/18 09:04:12;;;;;;;0.00;0.00;;;3.80;99.90;;;;;;5089469;28;20048;-47
2021/12/18 09:06:38;;;;;;;0.00;0.00;;;3.90;99.90;;;;;;5075070;28;20471;-47
2021/12/18 09:09:04;;;;;;;0.00;0.00;;;3.90;99.90;;;;;;5075549;28;20398;-47
2021/12/18 09:11:29;;;;;;;0.00;0.00;;;3.90;99.90;;;;;;5075377;28;20405;-49
2021/12/18 09:13:55;;;;;;;0.00;0.00;;;4.00;99.90;;;;;;5074965;28;20030;-48
2021/12/18 09:16:21;;;;;;;0.00;0.00;;;3.90;99.90;;;;;;5074999;28;20395;-51
2021/12/18 09:18:46;;;;;;;6.18;1.25;;;4.00;99.90;;;;;;5074738;28;20063;-48
2021/12/18 09:21:12;;;;;;;0.00;0.00;;;3.90;99.90;;;;;;5075136;28;20451;-49
2021/12/18 09:23:38;;;;;;;0.00;0.00;;;4.00;99.90;;;;;;5074799;28;20477;-51
2021/12/18 09:26:03;;;;;;;0.00;0.00;;;4.10;99.90;;;;;;5074904;28;20036;-51
2021/12/18 09:28:29;;;;;;;0.00;0.00;;;4.00;99.90;;;;;;5074854;28;20028;-48
2021/12/18 09:30:55;;;;;;;0.00;0.00;;;4.10;99.90;;;;;;5074533;28;20366;-50
2021/12/18 09:33:22;;;;;;;0.00;0.00;;;4.10;99.90;;;;;;5057017;28;20098;-48
2021/12/18 09:35:48;;;;;;;0.28;0.28;;;4.20;99.90;;;;;;5074687;28;20097;-49
2021/12/18 09:38:13;;;;;;;0.00;0.00;;;4.10;99.90;;;;;;5056885;28;20458;-47
2021/12/18 09:40:39;;;;;;;1.23;1.15;;;4.10;99.90;;;;;;5056460;28;20054;-48
2021/12/18 09:43:05;;;;;;;0.00;0.00;;;4.20;99.90;;;;;;5074167;28;20024;-48
2021/12/18 09:45:31;;;;;;;0.75;0.47;;;4.30;99.90;;;;;;5074523;28;20044;-49
2021/12/18 09:47:58;;;;;;;0.00;0.00;;;4.30;99.90;;;;;;5074138;28;20357;-52
2021/12/18 09:50:26;;;;;;;0.00;0.00;;;4.30;99.90;;;;;;5074368;28;20021;-52
2021/12/18 09:52:53;;;;;;;0.00;0.00;;;4.40;99.90;;;;;;5073702;28;20073;-52
2021/12/18 09:55:19;;;;;;;0.00;0.00;;;4.50;99.90;;;;;;5074433;28;20091;-46
2021/12/18 09:57:47;;;;;;;0.00;0.00;;;4.50;99.90;;;;;;5074011;28;20074;-51
2021/12/18 10:00:17;;;;;;;0.00;0.00;;;4.40;99.90;;;;;;5074242;28;20020;-49
2021/12/18 10:02:42;;;;;;;0.20;0.20;;;4.40;99.90;;;;;;5074528;28;20062;-48
2021/12/18 10:05:20;;;;;;;1.63;1.52;;;4.50;99.90;;;;;;5087947;28;20116;-50
2021/12/18 10:08:08;;;;;;;0.00;0.00;;;4.50;99.90;;;;;;5076068;28;20035;-49
2021/12/18 10:10:35;;;;;;;0.00;0.00;;;4.40;99.90;;;;;;5094506;28;20062;-50
2021/12/18 10:13:04;;;;;;;0.00;0.00;;;4.50;99.90;;;;;;5093988;28;20032;-51
2021/12/18 10:15:30;;;;;;;0.00;0.00;;;4.50;99.90;;;;;;5094208;28;20043;-47
2021/12/18 10:18:13;;;;;;;0.00;0.00;;;4.60;99.90;;;;;;5094045;28;20389;-49
2021/12/18 10:20:39;;;;;;;3.25;0.85;;;4.50;99.90;;;;;;5093914;28;20024;-51
2021/12/18 10:23:06;;;;;;;0.00;0.00;;;4.40;99.90;;;;;;5094091;28;20035;-48
2021/12/18 10:25:40;;;;;;;0.50;0.38;;;4.40;99.90;;;;;;5093814;28;20032;-50
2021/12/18 10:28:20;;;;;;;0.00;0.00;;;4.50;99.90;;;;;;5083787;28;20032;-47
2021/12/18 10:30:55;;;;;;;0.00;0.00;;;4.50;99.90;;;;;;5083880;28;20039;-49
2021/12/18 10:33:27;;;;;;;1.05;0.85;;;4.50;99.90;;;;;;5092382;28;20077;-49
2021/12/18 10:35:55;;;;;;;0.00;0.00;;;4.50;99.90;;;;;;5092374;28;20082;-50
2021/12/18 10:38:45;;;;;;;0.55;0.55;;;4.50;99.90;;;;;;5088886;28;20103;-49
2021/12/18 10:41:25;;;;;;;0.00;0.00;;;4.20;99.90;;;;;;5089284;28;20033;-48
2021/12/18 10:43:57;;;;;;;0.88;0.88;;;4.20;99.90;;;;;;5083901;28;20497;-49
2021/12/18 10:46:23;;;;;;;4.00;2.80;;;3.80;99.90;;;;;;5090733;28;20036;-52
2021/12/18 10:48:56;;;;;;;8.02;2.00;;;3.80;99.90;;;;;;5082597;28;20032;-48
2021/12/18 10:51:23;;;;;;;0.45;0.45;;;3.80;99.90;;;;;;5055081;28;20025;-50
2021/12/18 10:53:50;;;;;;;0.47;0.47;;;3.60;99.90;;;;;;5070453;28;20024;-48
2021/12/18 10:56:16;;;;;;;3.30;2.35;;;3.80;99.90;;;;;;5093123;28;20035;-47
2021/12/18 10:58:41;;;;;;;0.40;0.38;;;3.70;99.90;;;;;;5084678;28;20341;-50
2021/12/18 11:01:11;;;;;;;0.00;0.00;;;3.80;99.90;;;;;;5082302;28;20035;-53
2021/12/18 11:03:46;;;;;;;0.00;0.00;;;3.90;99.90;;;;;;5076072;28;20442;-50
2021/12/18 11:06:27;;;;;;;1.25;1.02;;;4.00;99.90;;;;;;5071785;28;20036;-49
2021/12/18 11:08:53;;;;;;;;;;;4.00;99.90;;;;;;5085702;28;20478;-51
2021/12/18 11:13:58;;;;;;;0.00;0.00;;;3.90;99.90;;;;;;5086361;28;20032;-48
2021/12/18 11:16:25;;;;;;;0.00;0.00;;;4.00;99.90;;;;;;5083200;28;20107;-53
2021/12/18 11:18:54;;;;;;;0.98;0.10;;;4.20;99.90;;;;;;5068356;28;20060;-49
2021/12/18 11:21:23;;;;;;;0.00;0.00;;;4.30;99.90;;;;;;5074227;28;20028;-48
2021/12/18 11:24:06;;;;;;;3.53;2.92;;;4.50;99.90;;;;;;5077344;28;20027;-47
2021/12/18 11:26:41;;;;;;;0.00;0.00;;;4.50;99.90;;;;;;5083247;28;20048;-54
2021/12/18 11:29:14;;;;;;;0.00;0.00;;;4.70;99.90;;;;;;5056726;28;20029;-48
2021/12/18 11:31:45;;;;;;;0.90;0.90;;;4.70;99.90;;;;;;5090667;28;20107;-51
2021/12/18 11:34:11;;;;;;;3.33;1.85;;;4.70;99.90;;;;;;5075886;28;20040;-50
2021/12/18 11:36:42;;;;;;;0.00;0.00;;;4.70;99.90;;;;;;5054150;28;20036;-51
2021/12/18 11:39:09;;;;;;;0.00;0.00;;;4.70;99.90;;;;;;5085201;28;20096;-53
2021/12/18 11:41:36;;;;;;;0.47;0.35;;;4.70;99.90;;;;;;5082581;28;20370;-52
2021/12/18 11:44:21;;;;;;;0.00;0.00;;;4.10;99.90;;;;;;5084795;28;20020;-53
2021/12/18 11:46:47;;;;;;;0.00;0.00;;;4.10;99.90;;;;;;5086739;28;20036;-47
2021/12/18 11:49:13;;;;;;;1.13;1.02;;;4.40;99.90;;;;;;5075319;28;20465;-50
2021/12/18 11:51:39;;;;;;;0.05;0.05;;;4.40;99.90;;;;;;5077703;28;20032;-50
2021/12/18 11:54:44;;;;;;;0.00;0.00;;;4.10;99.90;;;;;;5084644;28;20386;-50
2021/12/18 11:57:10;;;;;;;0.20;0.20;;;4.20;99.90;;;;;;5087236;28;20422;-52
2021/12/18 11:59:44;;;;;;;0.00;0.00;;;4.00;99.90;;;;;;5076198;28;20494;-52
2021/12/18 12:02:12;;;;;;;0.38;0.38;;;4.20;99.90;;;;;;5058871;28;20052;-49
2021/12/18 12:05:19;;;;;;;0.10;0.10;;;4.40;99.90;;;;;;5079410;28;20040;-47
2021/12/18 12:07:45;;;;;;;0.00;0.00;;;4.50;99.90;;;;;;5071669;28;20044;-49
2021/12/18 12:10:52;;;;;;;0.57;0.57;;;4.70;99.90;;;;;;5073608;28;20107;-54
2021/12/18 12:13:11;;;;;;;0.00;0.00;;;4.70;99.90;;;;;;5072711;28;20040;-48
2021/12/18 12:15:52;;;;;;;0.08;0.08;;;4.80;99.90;;;;;;5075611;28;20127;-50
2021/12/18 12:18:17;;;;;;;0.00;0.00;;;4.50;99.90;;;;;;5083960;28;20114;-51
2021/12/18 12:20:48;;;;;;;0.00;0.00;;;4.30;99.90;;;;;;5094933;28;20052;-52
2021/12/18 12:23:14;;;;;;;0.05;0.05;;;4.20;99.90;;;;;;5094499;28;20039;-49
2021/12/18 12:25:49;;;;;;;0.00;0.00;;;4.00;99.90;;;;;;5092710;28;20371;-51
2021/12/18 12:28:22;;;;;;;0.00;0.00;;;4.20;99.90;;;;;;5094457;28;20063;-52
2021/12/18 12:31:05;;;;;;;0.03;0.03;;;4.20;99.90;;;;;;5094110;28;20055;-49
2021/12/18 12:33:35;;;;;;;0.17;0.17;;;4.30;99.90;;;;;;5087829;28;20115;-51
2021/12/18 12:36:07;;;;;;;0.00;0.00;;;4.30;99.90;;;;;;5084967;28;20033;-49
2021/12/18 12:38:52;;;;;;;;;;;4.30;99.90;;;;;;5090909;28;20025;-50
2021/12/18 12:41:30;;;;;;;0.00;0.00;;;4.40;99.90;;;;;;5092478;28;19907;-54
2021/12/18 12:44:00;;;;;;;12.75;3.60;;;4.30;99.90;;;;;;5111187;28;20462;-49
2021/12/18 12:46:27;;;;;;;8.23;3.47;;;3.70;99.90;;;;;;5089216;28;20032;-51
2021/12/18 12:49:19;;;;;;;4.47;2.60;;;3.30;99.90;;;;;;5090294;28;20027;-50
2021/12/18 12:51:58;;;;;;;1.27;0.65;;;2.80;99.90;;;;;;5094879;28;20073;-55
2021/12/18 12:54:47;;;;;;;0.00;0.00;;;3.00;99.90;;;;;;5093551;28;20028;-47
2021/12/18 12:57:26;;;;;;;0.00;0.00;;;3.30;99.90;;;;;;5095054;28;20024;-53
2021/12/18 12:59:58;;;;;;;0.00;0.00;;;3.60;99.90;;;;;;5095406;28;20020;-51
2021/12/18 13:02:25;;;;;;;0.00;0.00;;;3.90;99.90;;;;;;5095068;28;20027;-51
2021/12/18 13:05:10;;;;;;;0.65;0.65;;;4.00;99.90;;;;;;5087527;28;20387;-50
2021/12/18 13:07:54;;;;;;;0.00;0.00;;;4.10;99.90;;;;;;5069053;28;20036;-53
2021/12/18 13:10:29;;;;;;;0.00;0.00;;;4.20;99.90;;;;;;5048379;28;20403;-53
2021/12/18 13:12:58;;;;;;;0.00;0.00;;;4.20;99.90;;;;;;5052735;28;20117;-52
2021/12/18 13:15:25;;;;;;;0.22;0.22;;;4.20;99.90;;;;;;5062558;28;20024;-51
2021/12/18 13:18:09;;;;;;;0.00;0.00;;;4.10;99.90;;;;;;5066824;28;20472;-52
2021/12/18 13:20:43;;;;;;;0.00;0.00;;;3.90;99.90;;;;;;5070450;28;20071;-54
2021/12/18 13:23:13;;;;;;;0.00;0.00;;;4.00;99.90;;;;;;5074930;28;20036;-51
2021/12/18 13:26:09;;;;;;;0.15;0.15;;;4.00;99.90;;;;;;5056899;28;20028;-50
2021/12/18 13:28:49;;;;;;;2.83;2.63;;;4.10;99.90;;;;;;5067734;28;20072;-49
2021/12/18 13:31:15;;;;;;;0.00;0.00;;;4.10;99.90;;;;;;5074939;28;20020;-51
2021/12/18 13:33:41;;;;;;;0.00;0.00;;;4.00;99.90;;;;;;5056662;28;20028;-50
2021/12/18 13:36:07;;;;;;;0.00;0.00;;;3.90;99.90;;;;;;5074303;28;20122;-49
2021/12/18 13:38:38;;;;;;;0.00;0.00;;;4.00;99.90;;;;;;5074522;28;20024;-51
2021/12/18 13:41:09;;;;;;;0.00;0.00;;;3.90;99.90;;;;;;5066949;28;20427;-50
2021/12/18 13:43:35;;;;;;;0.15;0.15;;;3.90;99.90;;;;;;5070365;28;20060;-51
2021/12/18 13:46:05;;;;;;;0.00;0.00;;;3.90;99.90;;;;;;5074091;28;20060;-51
2021/12/18 13:48:37;;;;;;;0.00;0.00;;;4.00;99.90;;;;;;5056314;28;20064;-49
2021/12/18 13:51:08;;;;;;;0.10;0.10;;;4.10;99.90;;;;;;5055316;28;20021;-55